Portada
METAR-TAF:

METAR-TAF

Aeroports :

Turaif, Aràbia Saudita

latitud: 31-41N, longitud: 038-44E, altitud: 813 m

Observació

L'informe es va fer fa 37 minuts, a les 19:00 UTC
Vent 14 kt del Oest
Temperatura 33°C
Humitat 13%
Pressió 1008 hPa
Visibilitat 10 km o més
sense núvols per sota de 1500 mi sense presència de cumulonimbus.

METAR: OETR 181900Z 28014KT CAVOK 33/01 Q1008 NOSIG

Hora: 22:37 (19:37 UTC)

Pronòstic

L'informe es va fer fa 8 hores i 37 minuts, a les 11:00 UTC
Pronòstic vàlid del 18 a les 12 UTC al 19 a les 18 UTC
Vent 12 kt del Oest
Visibilitat 10 km o més
sense núvols per sota de 1500 mi sense presència de cumulonimbus.
Evolucionant progressivament
l' 18 a les 18 UTC al 18 a les 20 UTC
Vent 7 kt del Nord/Nord-Oest
Evolucionant progressivament
l' 19 a les 06 UTC al 19 a les 08 UTC
Vent 10 kt del Oest

TAF: OETR 181100Z 1812/1918 28012KT CAVOK BECMG 1818/1820 34007KT BECMG 1906/1908 27010KT

Observacions i pronòstics meteorològics de més de 4000 aeroports (METAR i TAF).

Les estacions disponibles són els punts grocs i vermells al mapa.

Posi el ratolí al punt desitjat per veure el nom de l'estació.

Feu clic per veure les observacions i els pronòstics meteorològics.

Per canviar el mapa: feu clic els botons verds amb una creu de color negre per apropar; al botó verd amb un guió per allunyar la imatge; o en les fletxes verdes per a mapes adjacents.


METAR-TAF: